sensor_id;sensor_type;location;lat;lon;timestamp;P1;durP1;ratioP1;P2;durP2;ratioP2
76606;SDS011;65498;50.916;4.698;2023-02-11T00:01:09;9.33;;;3.70;;
76606;SDS011;65498;50.916;4.698;2023-02-11T00:03:44;8.20;;;3.87;;
76606;SDS011;65498;50.916;4.698;2023-02-11T00:06:12;8.60;;;4.00;;
76606;SDS011;65498;50.916;4.698;2023-02-11T00:08:39;8.35;;;3.80;;
76606;SDS011;65498;50.916;4.698;2023-02-11T00:11:08;8.70;;;4.22;;
76606;SDS011;65498;50.916;4.698;2023-02-11T00:13:41;7.58;;;3.20;;
76606;SDS011;65498;50.916;4.698;2023-02-11T00:16:11;7.25;;;3.35;;
76606;SDS011;65498;50.916;4.698;2023-02-11T00:18:40;6.47;;;2.98;;
76606;SDS011;65498;50.916;4.698;2023-02-11T00:21:09;8.75;;;3.50;;
76606;SDS011;65498;50.916;4.698;2023-02-11T00:23:38;8.83;;;3.72;;
76606;SDS011;65498;50.916;4.698;2023-02-11T00:26:12;7.70;;;3.50;;
76606;SDS011;65498;50.916;4.698;2023-02-11T00:28:42;8.45;;;3.50;;
76606;SDS011;65498;50.916;4.698;2023-02-11T00:31:11;7.62;;;3.02;;
76606;SDS011;65498;50.916;4.698;2023-02-11T00:33:39;7.85;;;3.10;;
76606;SDS011;65498;50.916;4.698;2023-02-11T00:36:08;7.42;;;3.20;;
76606;SDS011;65498;50.916;4.698;2023-02-11T00:38:44;7.08;;;3.20;;
76606;SDS011;65498;50.916;4.698;2023-02-11T00:41:13;7.67;;;3.30;;
76606;SDS011;65498;50.916;4.698;2023-02-11T00:43:41;6.83;;;3.22;;
76606;SDS011;65498;50.916;4.698;2023-02-11T00:46:09;8.38;;;3.75;;
76606;SDS011;65498;50.916;4.698;2023-02-11T00:48:37;8.88;;;3.40;;
76606;SDS011;65498;50.916;4.698;2023-02-11T00:51:05;6.60;;;3.10;;
76606;SDS011;65498;50.916;4.698;2023-02-11T00:53:33;7.15;;;2.72;;
76606;SDS011;65498;50.916;4.698;2023-02-11T00:56:01;7.53;;;3.25;;
76606;SDS011;65498;50.916;4.698;2023-02-11T00:58:29;8.10;;;3.55;;
76606;SDS011;65498;50.916;4.698;2023-02-11T01:00:57;7.50;;;3.02;;
76606;SDS011;65498;50.916;4.698;2023-02-11T01:03:25;7.15;;;2.92;;
76606;SDS011;65498;50.916;4.698;2023-02-11T01:05:52;6.83;;;2.75;;
76606;SDS011;65498;50.916;4.698;2023-02-11T01:08:20;6.85;;;2.75;;
76606;SDS011;65498;50.916;4.698;2023-02-11T01:10:58;6.55;;;2.70;;
76606;SDS011;65498;50.916;4.698;2023-02-11T01:13:28;6.75;;;2.80;;
76606;SDS011;65498;50.916;4.698;2023-02-11T01:15:57;7.70;;;3.20;;
76606;SDS011;65498;50.916;4.698;2023-02-11T01:18:25;7.00;;;2.72;;
76606;SDS011;65498;50.916;4.698;2023-02-11T01:20:53;6.85;;;3.25;;
76606;SDS011;65498;50.916;4.698;2023-02-11T01:23:21;5.92;;;2.30;;
76606;SDS011;65498;50.916;4.698;2023-02-11T01:25:49;7.90;;;2.95;;
76606;SDS011;65498;50.916;4.698;2023-02-11T01:28:22;6.30;;;2.40;;
76606;SDS011;65498;50.916;4.698;2023-02-11T01:30:50;6.53;;;2.67;;
76606;SDS011;65498;50.916;4.698;2023-02-11T01:33:18;6.12;;;2.50;;
76606;SDS011;65498;50.916;4.698;2023-02-11T01:35:45;5.90;;;2.42;;
76606;SDS011;65498;50.916;4.698;2023-02-11T01:38:14;6.20;;;2.33;;
76606;SDS011;65498;50.916;4.698;2023-02-11T01:40:47;6.25;;;2.40;;
76606;SDS011;65498;50.916;4.698;2023-02-11T01:43:23;6.45;;;2.55;;
76606;SDS011;65498;50.916;4.698;2023-02-11T01:45:55;6.05;;;2.15;;
76606;SDS011;65498;50.916;4.698;2023-02-11T01:48:24;6.58;;;2.62;;
76606;SDS011;65498;50.916;4.698;2023-02-11T01:50:59;11.22;;;3.20;;
76606;SDS011;65498;50.916;4.698;2023-02-11T01:53:27;13.28;;;3.17;;
76606;SDS011;65498;50.916;4.698;2023-02-11T01:56:15;14.78;;;4.80;;
76606;SDS011;65498;50.916;4.698;2023-02-11T01:59:03;11.88;;;3.62;;
76606;SDS011;65498;50.916;4.698;2023-02-11T02:01:32;9.60;;;3.10;;
76606;SDS011;65498;50.916;4.698;2023-02-11T02:04:02;13.13;;;3.43;;
76606;SDS011;65498;50.916;4.698;2023-02-11T02:06:33;11.08;;;3.50;;
76606;SDS011;65498;50.916;4.698;2023-02-11T02:09:06;9.08;;;3.10;;
76606;SDS011;65498;50.916;4.698;2023-02-11T02:11:35;9.75;;;3.60;;
76606;SDS011;65498;50.916;4.698;2023-02-11T02:14:03;10.38;;;3.33;;
76606;SDS011;65498;50.916;4.698;2023-02-11T02:16:35;10.98;;;3.45;;
76606;SDS011;65498;50.916;4.698;2023-02-11T02:21:57;10.00;;;3.42;;
76606;SDS011;65498;50.916;4.698;2023-02-11T02:33:21;10.90;;;3.20;;
76606;SDS011;65498;50.916;4.698;2023-02-11T02:41:31;10.23;;;3.20;;
76606;SDS011;65498;50.916;4.698;2023-02-11T02:44:00;9.03;;;2.77;;
76606;SDS011;65498;50.916;4.698;2023-02-11T02:46:29;10.78;;;3.08;;
76606;SDS011;65498;50.916;4.698;2023-02-11T02:48:58;8.78;;;3.08;;
76606;SDS011;65498;50.916;4.698;2023-02-11T02:51:33;11.73;;;2.83;;
76606;SDS011;65498;50.916;4.698;2023-02-11T02:56:54;7.70;;;2.67;;
76606;SDS011;65498;50.916;4.698;2023-02-11T03:00:11;10.43;;;3.50;;
76606;SDS011;65498;50.916;4.698;2023-02-11T03:02:02;9.33;;;2.60;;
76606;SDS011;65498;50.916;4.698;2023-02-11T03:04:43;7.35;;;2.80;;
76606;SDS011;65498;50.916;4.698;2023-02-11T03:09:50;8.03;;;2.60;;
76606;SDS011;65498;50.916;4.698;2023-02-11T03:12:26;8.83;;;2.92;;
76606;SDS011;65498;50.916;4.698;2023-02-11T03:14:57;7.35;;;2.65;;
76606;SDS011;65498;50.916;4.698;2023-02-11T03:17:26;7.33;;;2.77;;
76606;SDS011;65498;50.916;4.698;2023-02-11T03:19:57;7.33;;;2.45;;
76606;SDS011;65498;50.916;4.698;2023-02-11T03:22:49;10.60;;;2.87;;
76606;SDS011;65498;50.916;4.698;2023-02-11T03:25:05;10.93;;;2.85;;
76606;SDS011;65498;50.916;4.698;2023-02-11T03:30:29;6.10;;;2.50;;
76606;SDS011;65498;50.916;4.698;2023-02-11T03:33:00;7.92;;;2.67;;
76606;SDS011;65498;50.916;4.698;2023-02-11T03:35:32;7.92;;;2.40;;
76606;SDS011;65498;50.916;4.698;2023-02-11T03:38:06;7.75;;;2.52;;
76606;SDS011;65498;50.916;4.698;2023-02-11T03:40:41;8.23;;;3.17;;
76606;SDS011;65498;50.916;4.698;2023-02-11T03:43:17;7.40;;;2.30;;
76606;SDS011;65498;50.916;4.698;2023-02-11T03:48:19;7.40;;;2.87;;
76606;SDS011;65498;50.916;4.698;2023-02-11T03:50:48;7.42;;;2.10;;
76606;SDS011;65498;50.916;4.698;2023-02-11T03:53:19;8.63;;;2.70;;
76606;SDS011;65498;50.916;4.698;2023-02-11T03:55:49;7.55;;;2.30;;
76606;SDS011;65498;50.916;4.698;2023-02-11T03:58:18;7.65;;;2.52;;
76606;SDS011;65498;50.916;4.698;2023-02-11T04:00:46;6.42;;;2.30;;
76606;SDS011;65498;50.916;4.698;2023-02-11T04:03:14;6.92;;;2.12;;
76606;SDS011;65498;50.916;4.698;2023-02-11T04:05:41;6.40;;;2.10;;
76606;SDS011;65498;50.916;4.698;2023-02-11T04:08:09;6.22;;;2.02;;
76606;SDS011;65498;50.916;4.698;2023-02-11T04:10:36;10.03;;;2.30;;
76606;SDS011;65498;50.916;4.698;2023-02-11T04:13:04;7.62;;;2.10;;
76606;SDS011;65498;50.916;4.698;2023-02-11T04:15:31;7.42;;;2.50;;
76606;SDS011;65498;50.916;4.698;2023-02-11T04:17:59;8.25;;;2.30;;
76606;SDS011;65498;50.916;4.698;2023-02-11T04:20:28;6.35;;;2.02;;
76606;SDS011;65498;50.916;4.698;2023-02-11T04:22:56;7.67;;;2.47;;
76606;SDS011;65498;50.916;4.698;2023-02-11T04:25:23;5.75;;;2.10;;
76606;SDS011;65498;50.916;4.698;2023-02-11T04:27:51;5.37;;;1.77;;
76606;SDS011;65498;50.916;4.698;2023-02-11T04:30:19;9.05;;;2.10;;
76606;SDS011;65498;50.916;4.698;2023-02-11T04:32:47;7.55;;;2.75;;
76606;SDS011;65498;50.916;4.698;2023-02-11T04:35:14;7.67;;;2.62;;
76606;SDS011;65498;50.916;4.698;2023-02-11T04:37:42;8.35;;;2.85;;
76606;SDS011;65498;50.916;4.698;2023-02-11T04:40:10;6.83;;;2.33;;
76606;SDS011;65498;50.916;4.698;2023-02-11T04:42:37;6.50;;;2.05;;
76606;SDS011;65498;50.916;4.698;2023-02-11T04:45:05;4.90;;;1.72;;
76606;SDS011;65498;50.916;4.698;2023-02-11T04:47:33;6.53;;;2.17;;
76606;SDS011;65498;50.916;4.698;2023-02-11T04:50:02;8.23;;;2.15;;
76606;SDS011;65498;50.916;4.698;2023-02-11T04:52:30;7.05;;;2.12;;
76606;SDS011;65498;50.916;4.698;2023-02-11T04:54:58;9.80;;;2.20;;
76606;SDS011;65498;50.916;4.698;2023-02-11T04:57:25;6.53;;;2.12;;
76606;SDS011;65498;50.916;4.698;2023-02-11T04:59:53;7.00;;;2.17;;
76606;SDS011;65498;50.916;4.698;2023-02-11T05:02:21;4.70;;;1.72;;
76606;SDS011;65498;50.916;4.698;2023-02-11T05:04:48;6.85;;;2.05;;
76606;SDS011;65498;50.916;4.698;2023-02-11T05:07:16;6.58;;;2.15;;
76606;SDS011;65498;50.916;4.698;2023-02-11T05:09:43;6.92;;;2.72;;
76606;SDS011;65498;50.916;4.698;2023-02-11T05:12:11;6.22;;;2.17;;
76606;SDS011;65498;50.916;4.698;2023-02-11T05:14:38;6.05;;;2.10;;
76606;SDS011;65498;50.916;4.698;2023-02-11T05:17:06;7.37;;;2.58;;
76606;SDS011;65498;50.916;4.698;2023-02-11T05:19:34;7.20;;;2.62;;
76606;SDS011;65498;50.916;4.698;2023-02-11T05:22:01;7.70;;;2.20;;
76606;SDS011;65498;50.916;4.698;2023-02-11T05:24:34;5.08;;;1.70;;
76606;SDS011;65498;50.916;4.698;2023-02-11T05:26:58;6.67;;;2.27;;
76606;SDS011;65498;50.916;4.698;2023-02-11T05:29:26;8.38;;;2.33;;
76606;SDS011;65498;50.916;4.698;2023-02-11T05:31:54;6.42;;;1.75;;
76606;SDS011;65498;50.916;4.698;2023-02-11T05:34:21;6.80;;;1.98;;
76606;SDS011;65498;50.916;4.698;2023-02-11T05:36:49;5.95;;;2.10;;
76606;SDS011;65498;50.916;4.698;2023-02-11T05:39:16;6.15;;;2.00;;
76606;SDS011;65498;50.916;4.698;2023-02-11T05:41:44;6.30;;;1.90;;
76606;SDS011;65498;50.916;4.698;2023-02-11T05:44:12;6.97;;;2.15;;
76606;SDS011;65498;50.916;4.698;2023-02-11T05:46:39;6.08;;;2.20;;
76606;SDS011;65498;50.916;4.698;2023-02-11T05:49:07;6.60;;;1.92;;
76606;SDS011;65498;50.916;4.698;2023-02-11T05:51:34;8.33;;;2.40;;
76606;SDS011;65498;50.916;4.698;2023-02-11T05:54:02;6.45;;;1.98;;
76606;SDS011;65498;50.916;4.698;2023-02-11T05:56:29;5.53;;;1.95;;
76606;SDS011;65498;50.916;4.698;2023-02-11T05:58:58;8.38;;;2.12;;
76606;SDS011;65498;50.916;4.698;2023-02-11T06:01:25;6.53;;;2.42;;
76606;SDS011;65498;50.916;4.698;2023-02-11T06:03:53;6.67;;;2.22;;
76606;SDS011;65498;50.916;4.698;2023-02-11T06:06:21;6.80;;;2.42;;
76606;SDS011;65498;50.916;4.698;2023-02-11T06:08:49;6.33;;;1.87;;
76606;SDS011;65498;50.916;4.698;2023-02-11T06:11:17;7.62;;;2.20;;
76606;SDS011;65498;50.916;4.698;2023-02-11T06:13:45;6.60;;;1.92;;
76606;SDS011;65498;50.916;4.698;2023-02-11T06:16:12;7.03;;;3.08;;
76606;SDS011;65498;50.916;4.698;2023-02-11T06:18:40;6.37;;;1.98;;
76606;SDS011;65498;50.916;4.698;2023-02-11T06:21:08;5.72;;;1.77;;
76606;SDS011;65498;50.916;4.698;2023-02-11T06:23:37;5.47;;;2.03;;
76606;SDS011;65498;50.916;4.698;2023-02-11T06:26:06;5.58;;;2.33;;
76606;SDS011;65498;50.916;4.698;2023-02-11T06:28:35;6.33;;;2.15;;
76606;SDS011;65498;50.916;4.698;2023-02-11T06:31:06;6.42;;;2.08;;
76606;SDS011;65498;50.916;4.698;2023-02-11T06:33:34;6.95;;;2.50;;
76606;SDS011;65498;50.916;4.698;2023-02-11T06:36:02;5.95;;;1.92;;
76606;SDS011;65498;50.916;4.698;2023-02-11T06:38:31;7.80;;;2.03;;
76606;SDS011;65498;50.916;4.698;2023-02-11T06:40:58;5.42;;;1.90;;
76606;SDS011;65498;50.916;4.698;2023-02-11T06:43:26;5.50;;;1.72;;
76606;SDS011;65498;50.916;4.698;2023-02-11T06:45:53;5.45;;;1.82;;
76606;SDS011;65498;50.916;4.698;2023-02-11T06:48:21;7.08;;;2.10;;
76606;SDS011;65498;50.916;4.698;2023-02-11T06:50:49;6.78;;;2.05;;
76606;SDS011;65498;50.916;4.698;2023-02-11T06:53:17;5.08;;;2.00;;
76606;SDS011;65498;50.916;4.698;2023-02-11T06:55:44;5.95;;;1.80;;
76606;SDS011;65498;50.916;4.698;2023-02-11T06:58:12;7.03;;;2.00;;
76606;SDS011;65498;50.916;4.698;2023-02-11T07:00:40;5.80;;;1.92;;
76606;SDS011;65498;50.916;4.698;2023-02-11T07:03:07;5.97;;;2.08;;
76606;SDS011;65498;50.916;4.698;2023-02-11T07:05:35;6.67;;;2.00;;
76606;SDS011;65498;50.916;4.698;2023-02-11T07:08:03;5.55;;;2.10;;
76606;SDS011;65498;50.916;4.698;2023-02-11T07:10:31;7.12;;;1.98;;
76606;SDS011;65498;50.916;4.698;2023-02-11T07:12:59;5.72;;;2.05;;
76606;SDS011;65498;50.916;4.698;2023-02-11T07:15:27;6.67;;;1.90;;
76606;SDS011;65498;50.916;4.698;2023-02-11T07:17:54;6.28;;;2.62;;
76606;SDS011;65498;50.916;4.698;2023-02-11T07:20:22;5.33;;;1.80;;
76606;SDS011;65498;50.916;4.698;2023-02-11T07:22:50;7.22;;;2.20;;
76606;SDS011;65498;50.916;4.698;2023-02-11T07:25:17;5.45;;;2.30;;
76606;SDS011;65498;50.916;4.698;2023-02-11T07:27:45;6.85;;;2.02;;
76606;SDS011;65498;50.916;4.698;2023-02-11T07:30:13;6.53;;;1.95;;
76606;SDS011;65498;50.916;4.698;2023-02-11T07:32:40;5.35;;;2.00;;
76606;SDS011;65498;50.916;4.698;2023-02-11T07:35:08;4.83;;;1.75;;
76606;SDS011;65498;50.916;4.698;2023-02-11T07:37:35;7.28;;;1.95;;
76606;SDS011;65498;50.916;4.698;2023-02-11T07:40:03;6.72;;;2.17;;
76606;SDS011;65498;50.916;4.698;2023-02-11T07:42:37;6.73;;;2.50;;
76606;SDS011;65498;50.916;4.698;2023-02-11T07:45:01;4.92;;;2.10;;
76606;SDS011;65498;50.916;4.698;2023-02-11T07:47:29;6.70;;;2.35;;
76606;SDS011;65498;50.916;4.698;2023-02-11T07:49:56;7.20;;;2.42;;
76606;SDS011;65498;50.916;4.698;2023-02-11T07:52:24;5.55;;;2.17;;
76606;SDS011;65498;50.916;4.698;2023-02-11T07:54:53;5.43;;;1.87;;
76606;SDS011;65498;50.916;4.698;2023-02-11T07:57:20;5.95;;;2.95;;
76606;SDS011;65498;50.916;4.698;2023-02-11T07:59:48;7.40;;;2.20;;
76606;SDS011;65498;50.916;4.698;2023-02-11T08:02:15;6.45;;;2.22;;
76606;SDS011;65498;50.916;4.698;2023-02-11T08:04:44;5.28;;;2.15;;
76606;SDS011;65498;50.916;4.698;2023-02-11T08:07:15;6.83;;;2.10;;
76606;SDS011;65498;50.916;4.698;2023-02-11T08:09:43;6.12;;;2.15;;
76606;SDS011;65498;50.916;4.698;2023-02-11T08:12:11;6.10;;;2.10;;
76606;SDS011;65498;50.916;4.698;2023-02-11T08:14:38;5.83;;;2.27;;
76606;SDS011;65498;50.916;4.698;2023-02-11T08:17:06;7.83;;;2.45;;
76606;SDS011;65498;50.916;4.698;2023-02-11T08:19:33;5.70;;;2.17;;
76606;SDS011;65498;50.916;4.698;2023-02-11T08:22:01;6.22;;;2.17;;
76606;SDS011;65498;50.916;4.698;2023-02-11T08:24:29;6.08;;;2.15;;
76606;SDS011;65498;50.916;4.698;2023-02-11T08:26:56;6.87;;;2.60;;
76606;SDS011;65498;50.916;4.698;2023-02-11T08:29:24;5.72;;;2.17;;
76606;SDS011;65498;50.916;4.698;2023-02-11T08:31:51;6.15;;;2.00;;
76606;SDS011;65498;50.916;4.698;2023-02-11T08:34:19;5.97;;;2.30;;
76606;SDS011;65498;50.916;4.698;2023-02-11T08:36:46;8.08;;;2.10;;
76606;SDS011;65498;50.916;4.698;2023-02-11T08:39:15;6.67;;;2.33;;
76606;SDS011;65498;50.916;4.698;2023-02-11T08:41:46;7.40;;;2.40;;
76606;SDS011;65498;50.916;4.698;2023-02-11T08:44:15;6.75;;;2.52;;
76606;SDS011;65498;50.916;4.698;2023-02-11T08:46:43;5.10;;;2.20;;
76606;SDS011;65498;50.916;4.698;2023-02-11T08:49:10;12.37;;;2.62;;
76606;SDS011;65498;50.916;4.698;2023-02-11T08:51:38;6.55;;;2.40;;
76606;SDS011;65498;50.916;4.698;2023-02-11T08:54:06;6.42;;;2.37;;
76606;SDS011;65498;50.916;4.698;2023-02-11T08:56:35;7.50;;;2.50;;
76606;SDS011;65498;50.916;4.698;2023-02-11T08:59:03;6.05;;;2.40;;
76606;SDS011;65498;50.916;4.698;2023-02-11T09:01:32;5.75;;;2.37;;
76606;SDS011;65498;50.916;4.698;2023-02-11T09:04:00;7.85;;;2.35;;
76606;SDS011;65498;50.916;4.698;2023-02-11T09:06:27;6.35;;;2.30;;
76606;SDS011;65498;50.916;4.698;2023-02-11T09:08:56;5.97;;;2.37;;
76606;SDS011;65498;50.916;4.698;2023-02-11T09:11:25;6.35;;;2.50;;
76606;SDS011;65498;50.916;4.698;2023-02-11T09:13:54;6.72;;;2.77;;
76606;SDS011;65498;50.916;4.698;2023-02-11T09:16:26;7.60;;;2.37;;
76606;SDS011;65498;50.916;4.698;2023-02-11T09:18:56;7.75;;;2.77;;
76606;SDS011;65498;50.916;4.698;2023-02-11T09:21:26;6.50;;;2.47;;
76606;SDS011;65498;50.916;4.698;2023-02-11T09:23:54;7.80;;;3.15;;
76606;SDS011;65498;50.916;4.698;2023-02-11T09:26:23;7.37;;;2.27;;
76606;SDS011;65498;50.916;4.698;2023-02-11T09:28:53;6.87;;;2.85;;
76606;SDS011;65498;50.916;4.698;2023-02-11T09:31:22;5.72;;;2.30;;
76606;SDS011;65498;50.916;4.698;2023-02-11T09:33:52;8.00;;;2.45;;
76606;SDS011;65498;50.916;4.698;2023-02-11T09:36:27;5.70;;;2.27;;
76606;SDS011;65498;50.916;4.698;2023-02-11T09:38:53;5.40;;;2.08;;
76606;SDS011;65498;50.916;4.698;2023-02-11T09:44:03;7.45;;;2.67;;
76606;SDS011;65498;50.916;4.698;2023-02-11T09:46:34;6.00;;;2.60;;
76606;SDS011;65498;50.916;4.698;2023-02-11T09:49:06;7.15;;;2.70;;
76606;SDS011;65498;50.916;4.698;2023-02-11T09:51:48;6.92;;;2.42;;
76606;SDS011;65498;50.916;4.698;2023-02-11T09:54:28;7.33;;;3.12;;
76606;SDS011;65498;50.916;4.698;2023-02-11T09:57:03;6.60;;;2.58;;
76606;SDS011;65498;50.916;4.698;2023-02-11T09:59:33;5.97;;;2.77;;
76606;SDS011;65498;50.916;4.698;2023-02-11T10:02:08;6.17;;;2.42;;
76606;SDS011;65498;50.916;4.698;2023-02-11T10:04:42;10.05;;;3.20;;
76606;SDS011;65498;50.916;4.698;2023-02-11T10:23:46;7.60;;;3.05;;
76606;SDS011;65498;50.916;4.698;2023-02-11T10:26:17;7.20;;;3.22;;
76606;SDS011;65498;50.916;4.698;2023-02-11T10:28:45;7.10;;;2.87;;
76606;SDS011;65498;50.916;4.698;2023-02-11T10:31:17;7.08;;;2.98;;
76606;SDS011;65498;50.916;4.698;2023-02-11T10:34:06;7.87;;;3.30;;
76606;SDS011;65498;50.916;4.698;2023-02-11T10:36:39;10.45;;;3.42;;
76606;SDS011;65498;50.916;4.698;2023-02-11T10:39:13;8.00;;;3.50;;
76606;SDS011;65498;50.916;4.698;2023-02-11T10:41:45;7.65;;;3.20;;
76606;SDS011;65498;50.916;4.698;2023-02-11T10:44:34;8.58;;;3.40;;
76606;SDS011;65498;50.916;4.698;2023-02-11T10:47:10;7.90;;;3.73;;
76606;SDS011;65498;50.916;4.698;2023-02-11T10:49:40;8.05;;;3.52;;
76606;SDS011;65498;50.916;4.698;2023-02-11T10:55:05;8.23;;;3.10;;
76606;SDS011;65498;50.916;4.698;2023-02-11T10:57:39;8.83;;;3.90;;
76606;SDS011;65498;50.916;4.698;2023-02-11T11:03:00;13.25;;;5.10;;
76606;SDS011;65498;50.916;4.698;2023-02-11T11:05:35;8.50;;;4.20;;
76606;SDS011;65498;50.916;4.698;2023-02-11T11:08:01;7.92;;;3.80;;
76606;SDS011;65498;50.916;4.698;2023-02-11T11:10:40;10.00;;;4.20;;
76606;SDS011;65498;50.916;4.698;2023-02-11T11:13:32;7.92;;;3.90;;
76606;SDS011;65498;50.916;4.698;2023-02-11T11:16:08;10.68;;;3.92;;
76606;SDS011;65498;50.916;4.698;2023-02-11T11:18:42;9.38;;;4.53;;
76606;SDS011;65498;50.916;4.698;2023-02-11T11:21:24;16.12;;;4.83;;
76606;SDS011;65498;50.916;4.698;2023-02-11T11:24:00;9.48;;;4.53;;
76606;SDS011;65498;50.916;4.698;2023-02-11T11:26:42;9.60;;;4.40;;
76606;SDS011;65498;50.916;4.698;2023-02-11T11:29:16;9.00;;;4.12;;
76606;SDS011;65498;50.916;4.698;2023-02-11T11:32:01;9.53;;;4.37;;
76606;SDS011;65498;50.916;4.698;2023-02-11T11:34:20;9.85;;;4.62;;
76606;SDS011;65498;50.916;4.698;2023-02-11T11:36:48;9.75;;;4.30;;
76606;SDS011;65498;50.916;4.698;2023-02-11T11:39:20;8.40;;;4.62;;
76606;SDS011;65498;50.916;4.698;2023-02-11T11:41:59;8.00;;;4.28;;
76606;SDS011;65498;50.916;4.698;2023-02-11T11:44:34;10.45;;;4.72;;
76606;SDS011;65498;50.916;4.698;2023-02-11T11:47:06;11.73;;;5.08;;
76606;SDS011;65498;50.916;4.698;2023-02-11T11:49:47;9.43;;;4.58;;
76606;SDS011;65498;50.916;4.698;2023-02-11T11:52:34;9.58;;;4.80;;
76606;SDS011;65498;50.916;4.698;2023-02-11T11:57:45;9.55;;;4.75;;
76606;SDS011;65498;50.916;4.698;2023-02-11T12:00:18;9.18;;;4.40;;
76606;SDS011;65498;50.916;4.698;2023-02-11T12:08:15;9.98;;;5.15;;
76606;SDS011;65498;50.916;4.698;2023-02-11T12:27:15;10.38;;;4.83;;
76606;SDS011;65498;50.916;4.698;2023-02-11T12:30:15;9.68;;;5.17;;
76606;SDS011;65498;50.916;4.698;2023-02-11T12:35:25;9.33;;;4.72;;
76606;SDS011;65498;50.916;4.698;2023-02-11T12:38:04;9.95;;;5.58;;
76606;SDS011;65498;50.916;4.698;2023-02-11T12:48:32;8.55;;;4.42;;
76606;SDS011;65498;50.916;4.698;2023-02-11T12:51:19;9.43;;;4.65;;
76606;SDS011;65498;50.916;4.698;2023-02-11T12:56:39;9.20;;;4.70;;
76606;SDS011;65498;50.916;4.698;2023-02-11T13:02:20;9.03;;;4.70;;
76606;SDS011;65498;50.916;4.698;2023-02-11T13:04:47;9.60;;;4.78;;
76606;SDS011;65498;50.916;4.698;2023-02-11T13:07:25;9.23;;;4.65;;
76606;SDS011;65498;50.916;4.698;2023-02-11T13:10:01;8.45;;;4.67;;
76606;SDS011;65498;50.916;4.698;2023-02-11T13:12:31;9.93;;;4.87;;
76606;SDS011;65498;50.916;4.698;2023-02-11T13:15:18;8.45;;;5.20;;
76606;SDS011;65498;50.916;4.698;2023-02-11T13:17:52;9.68;;;5.12;;
76606;SDS011;65498;50.916;4.698;2023-02-11T13:20:29;8.00;;;4.70;;
76606;SDS011;65498;50.916;4.698;2023-02-11T13:23:14;8.63;;;4.78;;
76606;SDS011;65498;50.916;4.698;2023-02-11T13:25:43;9.20;;;4.47;;
76606;SDS011;65498;50.916;4.698;2023-02-11T13:31:01;8.33;;;4.60;;
76606;SDS011;65498;50.916;4.698;2023-02-11T13:33:35;9.60;;;4.78;;
76606;SDS011;65498;50.916;4.698;2023-02-11T13:38:37;9.30;;;5.15;;
76606;SDS011;65498;50.916;4.698;2023-02-11T13:41:12;9.93;;;5.25;;
76606;SDS011;65498;50.916;4.698;2023-02-11T13:43:41;9.23;;;4.95;;
76606;SDS011;65498;50.916;4.698;2023-02-11T13:46:10;9.68;;;5.47;;
76606;SDS011;65498;50.916;4.698;2023-02-11T13:48:50;9.30;;;5.03;;
76606;SDS011;65498;50.916;4.698;2023-02-11T13:51:39;8.45;;;5.15;;
76606;SDS011;65498;50.916;4.698;2023-02-11T13:54:08;8.60;;;4.73;;
76606;SDS011;65498;50.916;4.698;2023-02-11T13:56:39;8.88;;;5.20;;
76606;SDS011;65498;50.916;4.698;2023-02-11T14:08:11;12.45;;;5.50;;
76606;SDS011;65498;50.916;4.698;2023-02-11T14:14:00;9.40;;;5.15;;
76606;SDS011;65498;50.916;4.698;2023-02-11T14:16:27;8.55;;;4.92;;
76606;SDS011;65498;50.916;4.698;2023-02-11T14:32:24;8.10;;;5.17;;
76606;SDS011;65498;50.916;4.698;2023-02-11T14:35:27;10.32;;;5.30;;
76606;SDS011;65498;50.916;4.698;2023-02-11T14:43:04;10.78;;;5.72;;
76606;SDS011;65498;50.916;4.698;2023-02-11T14:45:52;10.32;;;6.30;;
76606;SDS011;65498;50.916;4.698;2023-02-11T14:48:21;9.33;;;5.70;;
76606;SDS011;65498;50.916;4.698;2023-02-11T14:50:52;12.58;;;5.67;;
76606;SDS011;65498;50.916;4.698;2023-02-11T14:53:22;11.97;;;6.35;;
76606;SDS011;65498;50.916;4.698;2023-02-11T14:55:52;10.65;;;5.95;;
76606;SDS011;65498;50.916;4.698;2023-02-11T14:58:21;10.23;;;5.90;;
76606;SDS011;65498;50.916;4.698;2023-02-11T15:01:01;12.07;;;6.78;;
76606;SDS011;65498;50.916;4.698;2023-02-11T15:03:36;11.25;;;6.58;;
76606;SDS011;65498;50.916;4.698;2023-02-11T15:11:17;14.90;;;8.10;;
76606;SDS011;65498;50.916;4.698;2023-02-11T15:13:46;16.82;;;9.23;;
76606;SDS011;65498;50.916;4.698;2023-02-11T15:16:16;15.68;;;10.68;;
76606;SDS011;65498;50.916;4.698;2023-02-11T15:18:52;19.10;;;13.18;;
76606;SDS011;65498;50.916;4.698;2023-02-11T15:21:23;19.20;;;13.68;;
76606;SDS011;65498;50.916;4.698;2023-02-11T15:24:00;20.12;;;13.85;;
76606;SDS011;65498;50.916;4.698;2023-02-11T15:26:31;20.62;;;14.95;;
76606;SDS011;65498;50.916;4.698;2023-02-11T15:28:59;20.72;;;14.73;;
76606;SDS011;65498;50.916;4.698;2023-02-11T15:31:27;20.62;;;15.18;;
76606;SDS011;65498;50.916;4.698;2023-02-11T15:33:54;22.93;;;16.10;;
76606;SDS011;65498;50.916;4.698;2023-02-11T15:36:24;20.90;;;15.32;;
76606;SDS011;65498;50.916;4.698;2023-02-11T15:39:26;21.68;;;14.47;;
76606;SDS011;65498;50.916;4.698;2023-02-11T15:41:45;23.23;;;15.83;;
76606;SDS011;65498;50.916;4.698;2023-02-11T15:44:31;33.00;;;16.45;;
76606;SDS011;65498;50.916;4.698;2023-02-11T15:46:55;139.77;;;25.25;;
76606;SDS011;65498;50.916;4.698;2023-02-11T15:49:23;160.45;;;26.27;;
76606;SDS011;65498;50.916;4.698;2023-02-11T15:51:52;100.80;;;21.30;;
76606;SDS011;65498;50.916;4.698;2023-02-11T15:54:23;116.30;;;21.65;;
76606;SDS011;65498;50.916;4.698;2023-02-11T15:56:58;109.07;;;21.52;;
76606;SDS011;65498;50.916;4.698;2023-02-11T15:59:32;102.05;;;20.65;;
76606;SDS011;65498;50.916;4.698;2023-02-11T16:02:36;98.95;;;19.05;;
76606;SDS011;65498;50.916;4.698;2023-02-11T16:04:54;83.00;;;19.27;;
76606;SDS011;65498;50.916;4.698;2023-02-11T16:07:46;91.28;;;18.17;;
76606;SDS011;65498;50.916;4.698;2023-02-11T16:15:42;69.35;;;16.70;;
76606;SDS011;65498;50.916;4.698;2023-02-11T16:18:12;74.82;;;14.93;;
76606;SDS011;65498;50.916;4.698;2023-02-11T16:20:45;66.85;;;16.00;;
76606;SDS011;65498;50.916;4.698;2023-02-11T16:23:20;65.52;;;15.90;;
76606;SDS011;65498;50.916;4.698;2023-02-11T16:25:49;70.22;;;18.25;;
76606;SDS011;65498;50.916;4.698;2023-02-11T16:28:18;54.90;;;14.45;;
76606;SDS011;65498;50.916;4.698;2023-02-11T16:30:48;64.97;;;15.60;;
76606;SDS011;65498;50.916;4.698;2023-02-11T16:33:17;57.98;;;15.43;;
76606;SDS011;65498;50.916;4.698;2023-02-11T16:35:44;54.30;;;14.38;;
76606;SDS011;65498;50.916;4.698;2023-02-11T16:38:14;49.08;;;14.35;;
76606;SDS011;65498;50.916;4.698;2023-02-11T16:40:43;52.05;;;12.47;;
76606;SDS011;65498;50.916;4.698;2023-02-11T16:43:12;44.45;;;11.50;;
76606;SDS011;65498;50.916;4.698;2023-02-11T16:45:40;44.42;;;12.85;;
76606;SDS011;65498;50.916;4.698;2023-02-11T16:48:07;34.92;;;10.98;;
76606;SDS011;65498;50.916;4.698;2023-02-11T16:50:38;46.05;;;12.65;;
76606;SDS011;65498;50.916;4.698;2023-02-11T16:53:08;48.78;;;11.48;;
76606;SDS011;65498;50.916;4.698;2023-02-11T16:55:37;37.95;;;11.80;;
76606;SDS011;65498;50.916;4.698;2023-02-11T16:58:04;37.90;;;11.35;;
76606;SDS011;65498;50.916;4.698;2023-02-11T17:00:32;37.75;;;10.88;;
76606;SDS011;65498;50.916;4.698;2023-02-11T17:02:59;39.35;;;11.53;;
76606;SDS011;65498;50.916;4.698;2023-02-11T17:05:27;38.20;;;10.13;;
76606;SDS011;65498;50.916;4.698;2023-02-11T17:07:54;27.62;;;10.08;;
76606;SDS011;65498;50.916;4.698;2023-02-11T17:10:22;34.92;;;10.15;;
76606;SDS011;65498;50.916;4.698;2023-02-11T17:12:50;44.55;;;10.72;;
76606;SDS011;65498;50.916;4.698;2023-02-11T17:15:18;34.20;;;9.98;;
76606;SDS011;65498;50.916;4.698;2023-02-11T17:17:45;34.45;;;9.18;;
76606;SDS011;65498;50.916;4.698;2023-02-11T17:20:14;37.85;;;9.28;;
76606;SDS011;65498;50.916;4.698;2023-02-11T17:22:42;29.45;;;9.23;;
76606;SDS011;65498;50.916;4.698;2023-02-11T17:25:09;33.25;;;10.58;;